sensor_id;sensor_type;location;lat;lon;timestamp;P1;durP1;ratioP1;P2;durP2;ratioP2
23594;SDS011;11975;47.674;9.472;2022-10-16T00:01:52;23.95;;;22.60;;
23594;SDS011;11975;47.674;9.472;2022-10-16T00:04:18;25.75;;;24.25;;
23594;SDS011;11975;47.674;9.472;2022-10-16T00:06:43;26.70;;;25.20;;
23594;SDS011;11975;47.674;9.472;2022-10-16T00:09:09;26.67;;;25.17;;
23594;SDS011;11975;47.674;9.472;2022-10-16T00:11:37;26.65;;;25.15;;
23594;SDS011;11975;47.674;9.472;2022-10-16T00:14:06;29.00;;;27.38;;
23594;SDS011;11975;47.674;9.472;2022-10-16T00:16:33;27.90;;;26.20;;
23594;SDS011;11975;47.674;9.472;2022-10-16T00:18:59;28.05;;;26.45;;
23594;SDS011;11975;47.674;9.472;2022-10-16T00:21:26;28.50;;;26.90;;
23594;SDS011;11975;47.674;9.472;2022-10-16T00:23:54;28.95;;;27.33;;
23594;SDS011;11975;47.674;9.472;2022-10-16T00:26:21;29.63;;;27.92;;
23594;SDS011;11975;47.674;9.472;2022-10-16T00:28:48;29.38;;;27.73;;
23594;SDS011;11975;47.674;9.472;2022-10-16T00:31:15;31.38;;;29.58;;
23594;SDS011;11975;47.674;9.472;2022-10-16T00:33:42;30.02;;;28.33;;
23594;SDS011;11975;47.674;9.472;2022-10-16T00:36:10;30.00;;;28.30;;
23594;SDS011;11975;47.674;9.472;2022-10-16T00:38:37;29.75;;;28.05;;
23594;SDS011;11975;47.674;9.472;2022-10-16T00:41:03;31.60;;;29.60;;
23594;SDS011;11975;47.674;9.472;2022-10-16T00:46:17;30.77;;;28.97;;
23594;SDS011;11975;47.674;9.472;2022-10-16T00:48:48;30.98;;;29.17;;
23594;SDS011;11975;47.674;9.472;2022-10-16T00:51:18;30.20;;;28.50;;
23594;SDS011;11975;47.674;9.472;2022-10-16T00:53:45;29.50;;;27.83;;
23594;SDS011;11975;47.674;9.472;2022-10-16T00:56:11;30.63;;;28.90;;
23594;SDS011;11975;47.674;9.472;2022-10-16T00:58:37;30.08;;;28.33;;
23594;SDS011;11975;47.674;9.472;2022-10-16T01:01:03;30.08;;;28.30;;
23594;SDS011;11975;47.674;9.472;2022-10-16T01:03:30;29.52;;;27.83;;
23594;SDS011;11975;47.674;9.472;2022-10-16T01:09:05;30.13;;;28.42;;
23594;SDS011;11975;47.674;9.472;2022-10-16T01:14:40;30.83;;;29.05;;
23594;SDS011;11975;47.674;9.472;2022-10-16T01:17:18;30.00;;;28.30;;
23594;SDS011;11975;47.674;9.472;2022-10-16T01:22:34;31.92;;;30.08;;
23594;SDS011;11975;47.674;9.472;2022-10-16T01:25:07;32.05;;;30.15;;
23594;SDS011;11975;47.674;9.472;2022-10-16T01:27:35;31.30;;;29.50;;
23594;SDS011;11975;47.674;9.472;2022-10-16T01:35:11;31.02;;;28.90;;
23594;SDS011;11975;47.674;9.472;2022-10-16T01:37:48;30.67;;;28.98;;
23594;SDS011;11975;47.674;9.472;2022-10-16T01:40:17;31.70;;;29.90;;
23594;SDS011;11975;47.674;9.472;2022-10-16T01:42:48;32.60;;;30.75;;
23594;SDS011;11975;47.674;9.472;2022-10-16T01:45:18;29.95;;;28.23;;
23594;SDS011;11975;47.674;9.472;2022-10-16T01:47:45;30.40;;;28.70;;
23594;SDS011;11975;47.674;9.472;2022-10-16T01:50:11;30.83;;;28.93;;
23594;SDS011;11975;47.674;9.472;2022-10-16T01:52:39;30.42;;;28.70;;
23594;SDS011;11975;47.674;9.472;2022-10-16T01:55:07;29.73;;;28.02;;
23594;SDS011;11975;47.674;9.472;2022-10-16T01:57:35;28.75;;;27.15;;
23594;SDS011;11975;47.674;9.472;2022-10-16T02:00:05;27.85;;;26.25;;
23594;SDS011;11975;47.674;9.472;2022-10-16T02:02:33;29.20;;;27.55;;
23594;SDS011;11975;47.674;9.472;2022-10-16T02:05:10;31.83;;;30.03;;
23594;SDS011;11975;47.674;9.472;2022-10-16T02:07:38;31.38;;;29.60;;
23594;SDS011;11975;47.674;9.472;2022-10-16T02:10:04;31.50;;;29.70;;
23594;SDS011;11975;47.674;9.472;2022-10-16T02:12:31;30.85;;;29.10;;
23594;SDS011;11975;47.674;9.472;2022-10-16T02:14:58;30.05;;;28.27;;
23594;SDS011;11975;47.674;9.472;2022-10-16T02:17:25;30.15;;;28.45;;
23594;SDS011;11975;47.674;9.472;2022-10-16T02:19:52;30.37;;;28.67;;
23594;SDS011;11975;47.674;9.472;2022-10-16T02:22:22;31.20;;;29.40;;
23594;SDS011;11975;47.674;9.472;2022-10-16T02:24:58;29.35;;;27.70;;
23594;SDS011;11975;47.674;9.472;2022-10-16T02:28:01;28.70;;;27.05;;
23594;SDS011;11975;47.674;9.472;2022-10-16T02:30:36;29.77;;;28.08;;
23594;SDS011;11975;47.674;9.472;2022-10-16T02:33:06;30.80;;;29.00;;
23594;SDS011;11975;47.674;9.472;2022-10-16T02:35:34;30.17;;;28.48;;
23594;SDS011;11975;47.674;9.472;2022-10-16T02:38:00;31.60;;;29.80;;
23594;SDS011;11975;47.674;9.472;2022-10-16T02:40:26;30.38;;;28.67;;
23594;SDS011;11975;47.674;9.472;2022-10-16T02:42:53;30.13;;;28.42;;
23594;SDS011;11975;47.674;9.472;2022-10-16T02:45:20;31.80;;;30.00;;
23594;SDS011;11975;47.674;9.472;2022-10-16T02:47:46;32.70;;;30.83;;
23594;SDS011;11975;47.674;9.472;2022-10-16T02:50:13;31.63;;;29.73;;
23594;SDS011;11975;47.674;9.472;2022-10-16T02:52:39;31.27;;;29.48;;
23594;SDS011;11975;47.674;9.472;2022-10-16T02:55:05;29.58;;;27.88;;
23594;SDS011;11975;47.674;9.472;2022-10-16T02:57:31;31.13;;;29.33;;
23594;SDS011;11975;47.674;9.472;2022-10-16T02:59:57;31.63;;;29.83;;
23594;SDS011;11975;47.674;9.472;2022-10-16T03:02:23;31.25;;;29.45;;
23594;SDS011;11975;47.674;9.472;2022-10-16T03:04:49;29.90;;;28.20;;
23594;SDS011;11975;47.674;9.472;2022-10-16T03:07:15;28.45;;;26.83;;
23594;SDS011;11975;47.674;9.472;2022-10-16T03:09:41;28.95;;;27.10;;
23594;SDS011;11975;47.674;9.472;2022-10-16T03:12:07;28.40;;;26.80;;
23594;SDS011;11975;47.674;9.472;2022-10-16T03:14:33;29.48;;;27.77;;
23594;SDS011;11975;47.674;9.472;2022-10-16T03:16:59;28.65;;;26.95;;
23594;SDS011;11975;47.674;9.472;2022-10-16T03:19:25;28.75;;;27.15;;
23594;SDS011;11975;47.674;9.472;2022-10-16T03:21:51;28.80;;;27.10;;
23594;SDS011;11975;47.674;9.472;2022-10-16T03:24:17;27.58;;;25.98;;
23594;SDS011;11975;47.674;9.472;2022-10-16T03:26:43;28.35;;;26.73;;
23594;SDS011;11975;47.674;9.472;2022-10-16T03:29:09;28.70;;;27.10;;
23594;SDS011;11975;47.674;9.472;2022-10-16T03:31:35;29.05;;;27.45;;
23594;SDS011;11975;47.674;9.472;2022-10-16T03:34:01;30.05;;;28.23;;
23594;SDS011;11975;47.674;9.472;2022-10-16T03:36:27;30.00;;;28.20;;
23594;SDS011;11975;47.674;9.472;2022-10-16T03:38:53;28.00;;;26.40;;
23594;SDS011;11975;47.674;9.472;2022-10-16T03:41:19;28.35;;;26.75;;
23594;SDS011;11975;47.674;9.472;2022-10-16T03:43:45;27.23;;;25.58;;
23594;SDS011;11975;47.674;9.472;2022-10-16T03:46:11;27.13;;;25.63;;
23594;SDS011;11975;47.674;9.472;2022-10-16T03:48:37;26.40;;;24.90;;
23594;SDS011;11975;47.674;9.472;2022-10-16T03:51:03;27.05;;;25.55;;
23594;SDS011;11975;47.674;9.472;2022-10-16T03:53:29;26.80;;;25.23;;
23594;SDS011;11975;47.674;9.472;2022-10-16T03:55:55;27.13;;;25.63;;
23594;SDS011;11975;47.674;9.472;2022-10-16T03:58:21;28.00;;;26.40;;
23594;SDS011;11975;47.674;9.472;2022-10-16T04:00:46;28.35;;;26.73;;
23594;SDS011;11975;47.674;9.472;2022-10-16T04:03:13;31.20;;;29.40;;
23594;SDS011;11975;47.674;9.472;2022-10-16T04:05:39;31.27;;;29.48;;
23594;SDS011;11975;47.674;9.472;2022-10-16T04:08:05;30.42;;;28.63;;
23594;SDS011;11975;47.674;9.472;2022-10-16T04:10:31;31.70;;;29.90;;
23594;SDS011;11975;47.674;9.472;2022-10-16T04:12:57;29.17;;;27.48;;
23594;SDS011;11975;47.674;9.472;2022-10-16T04:15:23;26.85;;;25.35;;
23594;SDS011;11975;47.674;9.472;2022-10-16T04:17:50;27.70;;;26.10;;
23594;SDS011;11975;47.674;9.472;2022-10-16T04:20:16;25.70;;;24.30;;
23594;SDS011;11975;47.674;9.472;2022-10-16T04:22:43;27.40;;;25.85;;
23594;SDS011;11975;47.674;9.472;2022-10-16T04:25:09;27.65;;;26.05;;
23594;SDS011;11975;47.674;9.472;2022-10-16T04:27:35;26.88;;;25.38;;
23594;SDS011;11975;47.674;9.472;2022-10-16T04:30:01;27.08;;;25.58;;
23594;SDS011;11975;47.674;9.472;2022-10-16T04:32:27;25.95;;;24.45;;
23594;SDS011;11975;47.674;9.472;2022-10-16T04:34:53;26.88;;;25.38;;
23594;SDS011;11975;47.674;9.472;2022-10-16T04:37:22;25.40;;;24.00;;
23594;SDS011;11975;47.674;9.472;2022-10-16T04:39:49;26.52;;;24.92;;
23594;SDS011;11975;47.674;9.472;2022-10-16T04:42:15;25.15;;;23.75;;
23594;SDS011;11975;47.674;9.472;2022-10-16T04:44:41;25.17;;;23.77;;
23594;SDS011;11975;47.674;9.472;2022-10-16T04:47:06;25.67;;;24.27;;
23594;SDS011;11975;47.674;9.472;2022-10-16T04:49:32;25.70;;;24.20;;
23594;SDS011;11975;47.674;9.472;2022-10-16T04:51:58;26.02;;;24.52;;
23594;SDS011;11975;47.674;9.472;2022-10-16T04:54:24;26.40;;;24.90;;
23594;SDS011;11975;47.674;9.472;2022-10-16T04:56:50;26.83;;;25.33;;
23594;SDS011;11975;47.674;9.472;2022-10-16T04:59:17;28.08;;;26.48;;
23594;SDS011;11975;47.674;9.472;2022-10-16T05:04:10;30.77;;;28.98;;
23594;SDS011;11975;47.674;9.472;2022-10-16T05:06:37;33.17;;;31.27;;
23594;SDS011;11975;47.674;9.472;2022-10-16T05:09:04;33.75;;;31.85;;
23594;SDS011;11975;47.674;9.472;2022-10-16T05:11:31;33.42;;;31.52;;
23594;SDS011;11975;47.674;9.472;2022-10-16T05:13:57;34.33;;;32.23;;
23594;SDS011;11975;47.674;9.472;2022-10-16T05:16:23;32.78;;;30.92;;
23594;SDS011;11975;47.674;9.472;2022-10-16T05:18:49;33.95;;;31.90;;
23594;SDS011;11975;47.674;9.472;2022-10-16T05:21:17;33.50;;;31.60;;
23594;SDS011;11975;47.674;9.472;2022-10-16T05:23:42;34.00;;;32.10;;
23594;SDS011;11975;47.674;9.472;2022-10-16T05:26:08;33.97;;;31.98;;
23594;SDS011;11975;47.674;9.472;2022-10-16T05:28:34;35.17;;;33.17;;
23594;SDS011;11975;47.674;9.472;2022-10-16T05:31:04;34.50;;;32.53;;
23594;SDS011;11975;47.674;9.472;2022-10-16T05:33:33;34.05;;;32.15;;
23594;SDS011;11975;47.674;9.472;2022-10-16T05:36:03;34.38;;;32.25;;
23594;SDS011;11975;47.674;9.472;2022-10-16T05:38:30;33.95;;;32.05;;
23594;SDS011;11975;47.674;9.472;2022-10-16T05:40:56;33.90;;;32.00;;
23594;SDS011;11975;47.674;9.472;2022-10-16T05:43:22;32.35;;;30.52;;
23594;SDS011;11975;47.674;9.472;2022-10-16T05:45:58;31.58;;;29.77;;
23594;SDS011;11975;47.674;9.472;2022-10-16T05:48:25;33.92;;;31.98;;
23594;SDS011;11975;47.674;9.472;2022-10-16T05:50:58;33.70;;;31.80;;
23594;SDS011;11975;47.674;9.472;2022-10-16T05:53:26;33.42;;;31.48;;
23594;SDS011;11975;47.674;9.472;2022-10-16T05:55:53;32.80;;;30.90;;
23594;SDS011;11975;47.674;9.472;2022-10-16T05:58:20;36.80;;;34.70;;
23594;SDS011;11975;47.674;9.472;2022-10-16T06:00:52;36.10;;;34.07;;
23594;SDS011;11975;47.674;9.472;2022-10-16T06:03:19;37.08;;;34.92;;
23594;SDS011;11975;47.674;9.472;2022-10-16T06:05:45;35.33;;;33.33;;
23594;SDS011;11975;47.674;9.472;2022-10-16T06:08:11;40.10;;;37.50;;
23594;SDS011;11975;47.674;9.472;2022-10-16T06:10:37;34.55;;;32.60;;
23594;SDS011;11975;47.674;9.472;2022-10-16T06:13:03;33.78;;;31.88;;
23594;SDS011;11975;47.674;9.472;2022-10-16T06:15:29;34.05;;;32.05;;
23594;SDS011;11975;47.674;9.472;2022-10-16T06:17:55;33.63;;;31.73;;
23594;SDS011;11975;47.674;9.472;2022-10-16T06:20:21;32.97;;;31.08;;
23594;SDS011;11975;47.674;9.472;2022-10-16T06:22:47;34.45;;;32.45;;
23594;SDS011;11975;47.674;9.472;2022-10-16T06:25:13;34.25;;;32.30;;
23594;SDS011;11975;47.674;9.472;2022-10-16T06:27:39;33.03;;;31.13;;
23594;SDS011;11975;47.674;9.472;2022-10-16T06:30:06;31.50;;;29.73;;
23594;SDS011;11975;47.674;9.472;2022-10-16T06:32:33;30.08;;;28.38;;
23594;SDS011;11975;47.674;9.472;2022-10-16T06:34:59;30.33;;;28.63;;
23594;SDS011;11975;47.674;9.472;2022-10-16T06:37:24;31.13;;;29.33;;
23594;SDS011;11975;47.674;9.472;2022-10-16T06:39:50;33.38;;;31.48;;
23594;SDS011;11975;47.674;9.472;2022-10-16T06:42:18;33.13;;;31.25;;
23594;SDS011;11975;47.674;9.472;2022-10-16T06:44:44;30.40;;;28.70;;
23594;SDS011;11975;47.674;9.472;2022-10-16T06:47:10;28.83;;;27.13;;
23594;SDS011;11975;47.674;9.472;2022-10-16T06:49:36;28.85;;;27.25;;
23594;SDS011;11975;47.674;9.472;2022-10-16T06:52:02;27.73;;;26.13;;
23594;SDS011;11975;47.674;9.472;2022-10-16T06:54:28;27.90;;;26.30;;
23594;SDS011;11975;47.674;9.472;2022-10-16T06:56:54;27.48;;;25.95;;
23594;SDS011;11975;47.674;9.472;2022-10-16T06:59:20;29.52;;;27.85;;
23594;SDS011;11975;47.674;9.472;2022-10-16T07:01:47;29.88;;;28.17;;
23594;SDS011;11975;47.674;9.472;2022-10-16T07:04:13;29.58;;;27.88;;
23594;SDS011;11975;47.674;9.472;2022-10-16T07:06:38;31.63;;;29.73;;
23594;SDS011;11975;47.674;9.472;2022-10-16T07:09:06;30.80;;;29.10;;
23594;SDS011;11975;47.674;9.472;2022-10-16T07:11:32;31.00;;;29.23;;
23594;SDS011;11975;47.674;9.472;2022-10-16T07:13:59;28.92;;;27.23;;
23594;SDS011;11975;47.674;9.472;2022-10-16T07:16:25;26.95;;;25.45;;
23594;SDS011;11975;47.674;9.472;2022-10-16T07:18:59;27.70;;;26.10;;
23594;SDS011;11975;47.674;9.472;2022-10-16T07:21:27;28.15;;;26.52;;
23594;SDS011;11975;47.674;9.472;2022-10-16T07:23:55;28.58;;;26.98;;
23594;SDS011;11975;47.674;9.472;2022-10-16T07:26:23;29.88;;;28.17;;
23594;SDS011;11975;47.674;9.472;2022-10-16T07:28:49;29.23;;;27.60;;
23594;SDS011;11975;47.674;9.472;2022-10-16T07:31:16;27.02;;;25.52;;
23594;SDS011;11975;47.674;9.472;2022-10-16T07:33:43;25.20;;;23.80;;
23594;SDS011;11975;47.674;9.472;2022-10-16T07:36:11;24.17;;;22.83;;
23594;SDS011;11975;47.674;9.472;2022-10-16T07:38:37;24.55;;;23.15;;
23594;SDS011;11975;47.674;9.472;2022-10-16T07:41:05;23.55;;;22.25;;
23594;SDS011;11975;47.674;9.472;2022-10-16T07:43:32;23.75;;;22.45;;
23594;SDS011;11975;47.674;9.472;2022-10-16T07:45:58;23.38;;;22.08;;
23594;SDS011;11975;47.674;9.472;2022-10-16T07:48:28;22.70;;;21.40;;
23594;SDS011;11975;47.674;9.472;2022-10-16T07:51:05;22.25;;;20.95;;
23594;SDS011;11975;47.674;9.472;2022-10-16T07:53:32;22.45;;;21.05;;
23594;SDS011;11975;47.674;9.472;2022-10-16T07:55:59;23.63;;;21.10;;
23594;SDS011;11975;47.674;9.472;2022-10-16T08:00:51;22.17;;;20.88;;
23594;SDS011;11975;47.674;9.472;2022-10-16T08:03:17;22.92;;;21.63;;
23594;SDS011;11975;47.674;9.472;2022-10-16T08:05:43;27.42;;;25.83;;
23594;SDS011;11975;47.674;9.472;2022-10-16T08:08:13;27.35;;;25.75;;
23594;SDS011;11975;47.674;9.472;2022-10-16T08:10:39;28.08;;;26.48;;
23594;SDS011;11975;47.674;9.472;2022-10-16T08:13:05;28.40;;;26.42;;
23594;SDS011;11975;47.674;9.472;2022-10-16T08:15:31;27.77;;;26.20;;
23594;SDS011;11975;47.674;9.472;2022-10-16T08:17:58;27.67;;;26.10;;
23594;SDS011;11975;47.674;9.472;2022-10-16T08:20:29;31.83;;;30.02;;
23594;SDS011;11975;47.674;9.472;2022-10-16T08:22:55;29.52;;;27.85;;
23594;SDS011;11975;47.674;9.472;2022-10-16T08:25:22;25.88;;;24.38;;
23594;SDS011;11975;47.674;9.472;2022-10-16T08:27:48;24.90;;;23.50;;
23594;SDS011;11975;47.674;9.472;2022-10-16T08:30:15;20.90;;;19.70;;
23594;SDS011;11975;47.674;9.472;2022-10-16T08:32:41;20.88;;;19.67;;
23594;SDS011;11975;47.674;9.472;2022-10-16T08:35:08;21.43;;;20.23;;
23594;SDS011;11975;47.674;9.472;2022-10-16T08:40:00;20.90;;;19.70;;
23594;SDS011;11975;47.674;9.472;2022-10-16T08:47:48;26.13;;;24.63;;
23594;SDS011;11975;47.674;9.472;2022-10-16T08:50:35;26.45;;;24.95;;
23594;SDS011;11975;47.674;9.472;2022-10-16T08:53:02;26.13;;;24.63;;
23594;SDS011;11975;47.674;9.472;2022-10-16T08:58:00;26.73;;;25.23;;
23594;SDS011;11975;47.674;9.472;2022-10-16T09:00:26;26.23;;;24.73;;
23594;SDS011;11975;47.674;9.472;2022-10-16T09:08:40;25.58;;;24.17;;
23594;SDS011;11975;47.674;9.472;2022-10-16T09:11:34;25.65;;;24.15;;
23594;SDS011;11975;47.674;9.472;2022-10-16T09:14:40;26.45;;;24.95;;
23594;SDS011;11975;47.674;9.472;2022-10-16T09:17:20;25.35;;;23.95;;
23594;SDS011;11975;47.674;9.472;2022-10-16T09:19:57;24.30;;;22.90;;
23594;SDS011;11975;47.674;9.472;2022-10-16T09:22:25;24.90;;;23.50;;
23594;SDS011;11975;47.674;9.472;2022-10-16T09:24:54;24.73;;;23.13;;
23594;SDS011;11975;47.674;9.472;2022-10-16T09:27:20;22.80;;;21.50;;
23594;SDS011;11975;47.674;9.472;2022-10-16T09:29:46;22.65;;;21.38;;
23594;SDS011;11975;47.674;9.472;2022-10-16T09:32:14;24.08;;;22.77;;
23594;SDS011;11975;47.674;9.472;2022-10-16T09:34:49;24.63;;;23.23;;
23594;SDS011;11975;47.674;9.472;2022-10-16T09:37:18;23.50;;;22.20;;
23594;SDS011;11975;47.674;9.472;2022-10-16T09:39:46;23.30;;;22.00;;
23594;SDS011;11975;47.674;9.472;2022-10-16T09:42:20;24.80;;;23.40;;
23594;SDS011;11975;47.674;9.472;2022-10-16T09:44:51;21.35;;;20.15;;
23594;SDS011;11975;47.674;9.472;2022-10-16T09:47:29;22.48;;;20.90;;
23594;SDS011;11975;47.674;9.472;2022-10-16T09:50:00;21.33;;;20.13;;
23594;SDS011;11975;47.674;9.472;2022-10-16T09:52:28;20.35;;;19.25;;
23594;SDS011;11975;47.674;9.472;2022-10-16T09:57:21;20.77;;;19.60;;
23594;SDS011;11975;47.674;9.472;2022-10-16T09:59:48;21.25;;;20.05;;
23594;SDS011;11975;47.674;9.472;2022-10-16T10:02:19;21.98;;;20.73;;
23594;SDS011;11975;47.674;9.472;2022-10-16T10:04:53;22.33;;;21.05;;
23594;SDS011;11975;47.674;9.472;2022-10-16T10:07:21;20.65;;;19.55;;
23594;SDS011;11975;47.674;9.472;2022-10-16T10:09:50;20.92;;;19.75;;
23594;SDS011;11975;47.674;9.472;2022-10-16T10:12:26;21.85;;;20.65;;
23594;SDS011;11975;47.674;9.472;2022-10-16T10:14:54;19.60;;;18.50;;
23594;SDS011;11975;47.674;9.472;2022-10-16T10:17:28;21.27;;;20.08;;
23594;SDS011;11975;47.674;9.472;2022-10-16T10:19:55;21.40;;;20.13;;
23594;SDS011;11975;47.674;9.472;2022-10-16T10:22:41;18.40;;;17.40;;
23594;SDS011;11975;47.674;9.472;2022-10-16T10:27:50;20.23;;;19.13;;
23594;SDS011;11975;47.674;9.472;2022-10-16T10:33:41;21.23;;;19.83;;
23594;SDS011;11975;47.674;9.472;2022-10-16T10:39:13;18.17;;;17.17;;
23594;SDS011;11975;47.674;9.472;2022-10-16T10:55:57;17.52;;;16.52;;
23594;SDS011;11975;47.674;9.472;2022-10-16T10:58:46;17.83;;;16.73;;
23594;SDS011;11975;47.674;9.472;2022-10-16T11:01:17;17.35;;;16.38;;
23594;SDS011;11975;47.674;9.472;2022-10-16T11:06:17;16.48;;;15.52;;
23594;SDS011;11975;47.674;9.472;2022-10-16T11:11:27;18.27;;;17.27;;
23594;SDS011;11975;47.674;9.472;2022-10-16T11:14:00;17.83;;;16.83;;
23594;SDS011;11975;47.674;9.472;2022-10-16T11:16:31;18.50;;;17.45;;
23594;SDS011;11975;47.674;9.472;2022-10-16T11:19:12;17.35;;;16.35;;
23594;SDS011;11975;47.674;9.472;2022-10-16T11:22:02;19.10;;;18.02;;
23594;SDS011;11975;47.674;9.472;2022-10-16T11:27:29;16.90;;;16.00;;
23594;SDS011;11975;47.674;9.472;2022-10-16T11:29:58;16.80;;;15.80;;
23594;SDS011;11975;47.674;9.472;2022-10-16T11:32:35;18.98;;;17.95;;
23594;SDS011;11975;47.674;9.472;2022-10-16T11:35:30;18.50;;;17.50;;
23594;SDS011;11975;47.674;9.472;2022-10-16T11:38:02;17.00;;;16.10;;
23594;SDS011;11975;47.674;9.472;2022-10-16T11:40:30;19.35;;;18.25;;
23594;SDS011;11975;47.674;9.472;2022-10-16T11:43:02;19.75;;;18.65;;
23594;SDS011;11975;47.674;9.472;2022-10-16T11:45:37;19.33;;;18.23;;
23594;SDS011;11975;47.674;9.472;2022-10-16T11:48:15;17.95;;;16.95;;
23594;SDS011;11975;47.674;9.472;2022-10-16T11:53:59;16.88;;;15.88;;
23594;SDS011;11975;47.674;9.472;2022-10-16T11:56:30;16.75;;;15.85;;
23594;SDS011;11975;47.674;9.472;2022-10-16T11:59:02;19.20;;;18.15;;
23594;SDS011;11975;47.674;9.472;2022-10-16T12:01:52;17.38;;;16.40;;
23594;SDS011;11975;47.674;9.472;2022-10-16T12:04:22;17.63;;;16.63;;
23594;SDS011;11975;47.674;9.472;2022-10-16T12:09:27;17.17;;;16.23;;
23594;SDS011;11975;47.674;9.472;2022-10-16T12:11:54;17.02;;;16.13;;
23594;SDS011;11975;47.674;9.472;2022-10-16T12:14:21;17.23;;;16.30;;
23594;SDS011;11975;47.674;9.472;2022-10-16T12:19:45;17.77;;;16.77;;
23594;SDS011;11975;47.674;9.472;2022-10-16T12:22:37;19.67;;;18.58;;
23594;SDS011;11975;47.674;9.472;2022-10-16T12:25:34;19.65;;;18.55;;
23594;SDS011;11975;47.674;9.472;2022-10-16T12:28:21;19.20;;;18.13;;
23594;SDS011;11975;47.674;9.472;2022-10-16T12:30:54;18.50;;;17.17;;
23594;SDS011;11975;47.674;9.472;2022-10-16T12:33:23;20.55;;;19.35;;
23594;SDS011;11975;47.674;9.472;2022-10-16T12:35:50;21.25;;;20.05;;
23594;SDS011;11975;47.674;9.472;2022-10-16T12:38:26;21.67;;;20.47;;
23594;SDS011;11975;47.674;9.472;2022-10-16T12:41:01;19.52;;;18.33;;
23594;SDS011;11975;47.674;9.472;2022-10-16T12:44:02;20.70;;;19.50;;
23594;SDS011;11975;47.674;9.472;2022-10-16T12:51:40;18.38;;;17.35;;
23594;SDS011;11975;47.674;9.472;2022-10-16T12:54:17;19.90;;;18.73;;
23594;SDS011;11975;47.674;9.472;2022-10-16T12:56:58;19.38;;;18.17;;
23594;SDS011;11975;47.674;9.472;2022-10-16T13:10:28;18.08;;;17.08;;
23594;SDS011;11975;47.674;9.472;2022-10-16T13:15:47;19.17;;;17.40;;
23594;SDS011;11975;47.674;9.472;2022-10-16T13:18:29;19.17;;;18.10;;
23594;SDS011;11975;47.674;9.472;2022-10-16T13:21:11;19.38;;;18.30;;
23594;SDS011;11975;47.674;9.472;2022-10-16T13:26:53;17.13;;;16.23;;
23594;SDS011;11975;47.674;9.472;2022-10-16T13:31:49;17.23;;;16.30;;
23594;SDS011;11975;47.674;9.472;2022-10-16T13:34:18;17.60;;;16.60;;
23594;SDS011;11975;47.674;9.472;2022-10-16T13:36:47;17.55;;;16.55;;
23594;SDS011;11975;47.674;9.472;2022-10-16T13:39:20;17.33;;;16.40;;
23594;SDS011;11975;47.674;9.472;2022-10-16T13:44:25;17.40;;;16.45;;
23594;SDS011;11975;47.674;9.472;2022-10-16T13:47:00;17.02;;;16.13;;
23594;SDS011;11975;47.674;9.472;2022-10-16T13:49:27;17.98;;;16.98;;
23594;SDS011;11975;47.674;9.472;2022-10-16T13:51:57;19.38;;;18.27;;
23594;SDS011;11975;47.674;9.472;2022-10-16T13:54:25;20.08;;;18.98;;
23594;SDS011;11975;47.674;9.472;2022-10-16T13:56:52;20.20;;;19.00;;
23594;SDS011;11975;47.674;9.472;2022-10-16T13:59:24;22.88;;;21.27;;
23594;SDS011;11975;47.674;9.472;2022-10-16T14:02:20;21.98;;;20.77;;
23594;SDS011;11975;47.674;9.472;2022-10-16T14:04:51;19.75;;;18.65;;
23594;SDS011;11975;47.674;9.472;2022-10-16T14:07:23;19.85;;;18.75;;
23594;SDS011;11975;47.674;9.472;2022-10-16T14:09:51;20.13;;;18.83;;
23594;SDS011;11975;47.674;9.472;2022-10-16T14:12:18;18.58;;;17.52;;
23594;SDS011;11975;47.674;9.472;2022-10-16T14:14:48;19.08;;;18.00;;
23594;SDS011;11975;47.674;9.472;2022-10-16T14:17:16;17.60;;;16.60;;
23594;SDS011;11975;47.674;9.472;2022-10-16T14:19:48;17.48;;;16.48;;
23594;SDS011;11975;47.674;9.472;2022-10-16T14:22:22;17.60;;;16.60;;
23594;SDS011;11975;47.674;9.472;2022-10-16T14:24:53;16.95;;;16.05;;
23594;SDS011;11975;47.674;9.472;2022-10-16T14:27:30;19.15;;;18.05;;
23594;SDS011;11975;47.674;9.472;2022-10-16T14:32:34;19.77;;;18.67;;
23594;SDS011;11975;47.674;9.472;2022-10-16T14:35:00;19.98;;;18.88;;
23594;SDS011;11975;47.674;9.472;2022-10-16T14:37:27;20.98;;;19.75;;
23594;SDS011;11975;47.674;9.472;2022-10-16T14:39:54;21.80;;;20.60;;
23594;SDS011;11975;47.674;9.472;2022-10-16T14:42:21;23.15;;;21.85;;
23594;SDS011;11975;47.674;9.472;2022-10-16T14:44:53;22.92;;;21.63;;
23594;SDS011;11975;47.674;9.472;2022-10-16T14:47:20;20.63;;;19.50;;
23594;SDS011;11975;47.674;9.472;2022-10-16T14:49:50;17.60;;;16.60;;
23594;SDS011;11975;47.674;9.472;2022-10-16T14:52:17;20.60;;;19.48;;
23594;SDS011;11975;47.674;9.472;2022-10-16T14:54:43;19.77;;;18.67;;
23594;SDS011;11975;47.674;9.472;2022-10-16T14:57:18;21.83;;;20.63;;
23594;SDS011;11975;47.674;9.472;2022-10-16T14:59:45;22.80;;;21.40;;
23594;SDS011;11975;47.674;9.472;2022-10-16T15:02:20;23.17;;;21.85;;
23594;SDS011;11975;47.674;9.472;2022-10-16T15:04:57;24.05;;;22.67;;
23594;SDS011;11975;47.674;9.472;2022-10-16T15:07:24;24.65;;;23.25;;
23594;SDS011;11975;47.674;9.472;2022-10-16T15:09:50;24.55;;;23.15;;
23594;SDS011;11975;47.674;9.472;2022-10-16T15:12:16;25.60;;;24.13;;
23594;SDS011;11975;47.674;9.472;2022-10-16T15:14:42;25.57;;;24.17;;
23594;SDS011;11975;47.674;9.472;2022-10-16T15:17:09;25.17;;;23.67;;
23594;SDS011;11975;47.674;9.472;2022-10-16T15:19:35;23.58;;;22.27;;
23594;SDS011;11975;47.674;9.472;2022-10-16T15:22:01;23.48;;;22.15;;
23594;SDS011;11975;47.674;9.472;2022-10-16T15:24:27;24.40;;;22.90;;
23594;SDS011;11975;47.674;9.472;2022-10-16T15:26:53;22.13;;;20.83;;
23594;SDS011;11975;47.674;9.472;2022-10-16T15:29:19;21.55;;;20.35;;
23594;SDS011;11975;47.674;9.472;2022-10-16T15:31:45;22.65;;;21.38;;
23594;SDS011;11975;47.674;9.472;2022-10-16T15:34:13;22.42;;;20.70;;
23594;SDS011;11975;47.674;9.472;2022-10-16T15:36:40;22.95;;;21.65;;
23594;SDS011;11975;47.674;9.472;2022-10-16T15:39:13;22.25;;;21.02;;
23594;SDS011;11975;47.674;9.472;2022-10-16T15:44:09;25.10;;;23.67;;
23594;SDS011;11975;47.674;9.472;2022-10-16T15:46:35;23.20;;;21.90;;
23594;SDS011;11975;47.674;9.472;2022-10-16T15:49:02;22.17;;;20.95;;
23594;SDS011;11975;47.674;9.472;2022-10-16T15:51:28;22.70;;;21.43;;
23594;SDS011;11975;47.674;9.472;2022-10-16T15:53:58;22.75;;;21.45;;
23594;SDS011;11975;47.674;9.472;2022-10-16T15:56:24;23.60;;;22.30;;
23594;SDS011;11975;47.674;9.472;2022-10-16T15:58:51;24.83;;;23.42;;
23594;SDS011;11975;47.674;9.472;2022-10-16T16:01:17;23.90;;;22.58;;
23594;SDS011;11975;47.674;9.472;2022-10-16T16:03:43;24.30;;;22.92;;
23594;SDS011;11975;47.674;9.472;2022-10-16T16:06:10;23.85;;;22.45;;
23594;SDS011;11975;47.674;9.472;2022-10-16T16:08:38;25.42;;;23.90;;
23594;SDS011;11975;47.674;9.472;2022-10-16T16:11:08;24.95;;;23.40;;
23594;SDS011;11975;47.674;9.472;2022-10-16T16:13:35;25.58;;;24.08;;
23594;SDS011;11975;47.674;9.472;2022-10-16T16:16:06;24.45;;;23.05;;
23594;SDS011;11975;47.674;9.472;2022-10-16T16:18:40;24.75;;;23.35;;
23594;SDS011;11975;47.674;9.472;2022-10-16T16:21:06;25.08;;;23.48;;
23594;SDS011;11975;47.674;9.472;2022-10-16T16:23:32;23.60;;;22.30;;
23594;SDS011;11975;47.674;9.472;2022-10-16T16:26:05;23.20;;;21.90;;